Villa Santa, Puerto Rico
Current Conditions -  °F | °C
As of 10:56 PM on Saturday 22 Nov 2014 (Local Time) from TJSJ Reporting Station
Scattered Clouds Scattered Clouds  
Wind Chill: 81°   Ceiling: Unl
Heat Index: 87°   Visibility: 10mi
Dew Point: 75°   Wind: 14mph
Humidity: 82%   Direction: 70°ENE
Pressure: 30.02"   Gusts: NA
Location:  18.4598°N, 66.2592°W
Report Text: TJSJ 230256Z 07012KT 10SM SCT026 SCT035 SCT050 27/24 A3002 RMK AO2 SLP164 T02720239 50004 $
Loading
Personal Weather Stations






























Interactive Weather Map New forecast layout! Learn more

10-Day Weather Forecast

Advertisements
Track Severe Weather on mobile